createdAt,value
2018-10-11T00:02:13.561Z,16.80
2018-10-11T00:04:46.580Z,16.80
2018-10-11T00:07:20.161Z,16.70
2018-10-11T00:09:51.901Z,16.70
2018-10-11T00:12:24.702Z,16.70
2018-10-11T00:14:57.407Z,16.70
2018-10-11T00:17:30.401Z,16.70
2018-10-11T00:20:02.120Z,16.60
2018-10-11T00:22:34.741Z,16.60
2018-10-11T00:25:07.121Z,16.60
2018-10-11T00:27:39.241Z,16.60
2018-10-11T00:30:11.402Z,16.60
2018-10-11T00:32:43.141Z,16.40
2018-10-11T00:35:15.321Z,16.30
2018-10-11T00:37:48.462Z,16.30
2018-10-11T00:40:21.047Z,16.30
2018-10-11T00:42:54.341Z,16.30
2018-10-11T00:45:26.641Z,16.30
2018-10-11T00:47:59.563Z,16.30
2018-10-11T00:50:31.481Z,16.30
2018-10-11T00:53:03.861Z,16.20
2018-10-11T00:55:36.261Z,16.10
2018-10-11T00:58:08.061Z,16.10
2018-10-11T01:00:40.381Z,16.10
2018-10-11T01:03:12.481Z,16.10
2018-10-11T01:05:44.702Z,16.00
2018-10-11T01:08:17.581Z,16.00
2018-10-11T01:10:50.102Z,16.00
2018-10-11T01:13:22.402Z,16.00
2018-10-11T01:15:54.820Z,16.00
2018-10-11T01:18:26.742Z,15.90
2018-10-11T01:20:59.061Z,16.00
2018-10-11T01:23:32.681Z,16.00
2018-10-11T01:26:04.882Z,16.00
2018-10-11T01:28:36.409Z,16.00
2018-10-11T01:31:11.810Z,16.00
2018-10-11T01:33:44.369Z,16.00
2018-10-11T01:36:17.686Z,16.00
2018-10-11T01:38:50.882Z,15.90
2018-10-11T01:41:22.107Z,16.00
2018-10-11T01:43:55.047Z,16.00
2018-10-11T01:46:28.327Z,16.10
2018-10-11T01:49:00.407Z,16.10
2018-10-11T01:51:32.649Z,16.00
2018-10-11T01:54:05.767Z,16.10
2018-10-11T01:56:37.511Z,16.10
2018-10-11T01:59:09.287Z,16.20
2018-10-11T02:01:41.726Z,16.20
2018-10-11T02:04:12.967Z,16.20
2018-10-11T02:06:45.626Z,16.20
2018-10-11T02:09:17.392Z,16.20
2018-10-11T02:11:49.946Z,16.20
2018-10-11T02:14:21.530Z,16.20
2018-10-11T02:16:54.550Z,16.20
2018-10-11T02:19:26.946Z,16.30
2018-10-11T02:21:58.625Z,16.30
2018-10-11T02:24:30.686Z,16.30
2018-10-11T02:27:03.166Z,16.20
2018-10-11T02:29:35.066Z,16.20
2018-10-11T02:32:08.023Z,16.20
2018-10-11T02:34:40.865Z,16.20
2018-10-11T02:37:13.546Z,16.10
2018-10-11T02:39:46.013Z,16.10
2018-10-11T02:42:18.366Z,16.10
2018-10-11T02:44:49.786Z,16.00
2018-10-11T02:47:24.007Z,16.00
2018-10-11T02:49:56.066Z,16.00
2018-10-11T02:52:29.666Z,16.10
2018-10-11T02:55:01.487Z,16.00
2018-10-11T02:57:43.566Z,16.00
2018-10-11T03:00:15.886Z,16.10
2018-10-11T03:02:49.306Z,16.10
2018-10-11T03:05:24.326Z,16.10
2018-10-11T03:07:56.107Z,16.00
2018-10-11T03:10:28.686Z,16.10
2018-10-11T03:13:01.027Z,16.00
2018-10-11T03:15:33.627Z,16.00
2018-10-11T03:18:05.706Z,16.10
2018-10-11T03:20:37.487Z,16.10
2018-10-11T03:23:10.586Z,16.20
2018-10-11T03:25:42.887Z,16.20
2018-10-11T03:28:17.806Z,16.30
2018-10-11T03:30:49.328Z,16.30
2018-10-11T03:33:21.927Z,16.30
2018-10-11T03:35:53.947Z,16.30
2018-10-11T03:38:28.307Z,16.30
2018-10-11T03:41:00.647Z,16.20
2018-10-11T03:43:33.547Z,16.20
2018-10-11T03:46:04.786Z,16.20
2018-10-11T03:48:36.668Z,16.20
2018-10-11T03:51:08.528Z,16.20
2018-10-11T03:53:41.407Z,16.20
2018-10-11T03:56:13.047Z,16.20
2018-10-11T03:58:45.407Z,16.30
2018-10-11T04:01:17.447Z,16.30
2018-10-11T04:03:49.366Z,16.40
2018-10-11T04:06:21.607Z,16.40
2018-10-11T04:08:53.240Z,16.40
2018-10-11T04:11:25.019Z,16.40
2018-10-11T04:13:57.819Z,16.50
2018-10-11T04:16:29.919Z,16.50
2018-10-11T04:19:01.586Z,16.50
2018-10-11T04:21:33.479Z,16.50
2018-10-11T04:24:05.581Z,16.50
2018-10-11T04:26:36.898Z,16.40
2018-10-11T04:29:08.719Z,16.40
2018-10-11T04:31:39.985Z,16.50
2018-10-11T04:34:12.358Z,16.60
2018-10-11T04:36:45.360Z,16.80
2018-10-11T04:39:17.178Z,16.90
2018-10-11T04:41:49.239Z,17.20
2018-10-11T04:44:20.899Z,17.30
2018-10-11T04:46:52.278Z,17.30
2018-10-11T04:49:23.619Z,17.20
2018-10-11T04:51:55.541Z,17.20
2018-10-11T04:54:27.519Z,17.20
2018-10-11T04:56:59.758Z,17.20
2018-10-11T04:59:32.164Z,17.30
2018-10-11T05:02:04.299Z,17.50
2018-10-11T05:04:35.658Z,17.50
2018-10-11T05:07:07.419Z,17.60
2018-10-11T05:09:38.980Z,17.60
2018-10-11T05:12:12.040Z,17.70
2018-10-11T05:14:44.201Z,17.70
2018-10-11T05:17:16.319Z,17.80
2018-10-11T05:19:48.238Z,17.90
2018-10-11T05:22:21.038Z,18.00
2018-10-11T05:24:52.958Z,18.10
2018-10-11T05:27:25.419Z,18.10
2018-10-11T05:29:57.379Z,18.20
2018-10-11T05:32:30.281Z,18.30
2018-10-11T05:35:01.801Z,18.50
2018-10-11T05:37:34.082Z,18.60
2018-10-11T05:40:05.821Z,18.60
2018-10-11T05:42:36.842Z,18.70
2018-10-11T05:45:14.464Z,18.80
2018-10-11T05:47:47.101Z,18.80
2018-10-11T05:50:19.614Z,18.90
2018-10-11T05:52:52.443Z,19.00
2018-10-11T05:55:24.505Z,19.10
2018-10-11T05:57:56.502Z,19.10
2018-10-11T06:00:28.922Z,19.20
2018-10-11T06:03:03.241Z,19.10
2018-10-11T06:05:35.503Z,19.20
2018-10-11T06:08:07.182Z,19.20
2018-10-11T06:10:41.566Z,19.20
2018-10-11T06:13:13.662Z,19.20
2018-10-11T06:15:46.401Z,19.20
2018-10-11T06:18:17.862Z,19.20
2018-10-11T06:20:50.261Z,19.10
2018-10-11T06:23:21.101Z,19.10
2018-10-11T06:25:53.026Z,19.20
2018-10-11T06:28:25.086Z,19.10
2018-10-11T06:30:56.646Z,19.10
2018-10-11T06:33:29.406Z,19.20
2018-10-11T06:36:02.379Z,19.20
2018-10-11T06:38:35.063Z,19.20
2018-10-11T06:41:07.571Z,19.10
2018-10-11T06:43:39.991Z,19.10
2018-10-11T06:46:12.511Z,19.20
2018-10-11T06:48:45.032Z,19.10
2018-10-11T06:51:16.471Z,19.10
2018-10-11T06:53:49.181Z,19.20
2018-10-11T06:56:20.972Z,19.30
2018-10-11T06:58:52.771Z,19.30
2018-10-11T07:01:23.951Z,19.40
2018-10-11T07:03:56.171Z,19.40
2018-10-11T07:06:27.871Z,19.50
2018-10-11T07:09:00.021Z,19.50
2018-10-11T07:11:31.611Z,19.60
2018-10-11T07:14:03.757Z,19.60
2018-10-11T07:16:35.031Z,19.70
2018-10-11T07:19:07.851Z,19.80
2018-10-11T07:21:40.171Z,19.80
2018-10-11T07:24:12.061Z,19.90
2018-10-11T07:26:43.961Z,20.00
2018-10-11T07:29:15.860Z,20.00
2018-10-11T07:31:47.921Z,20.10
2018-10-11T07:34:20.401Z,20.20
2018-10-11T07:36:52.102Z,20.30
2018-10-11T07:39:24.529Z,20.30
2018-10-11T07:41:56.365Z,20.40
2018-10-11T07:44:28.661Z,20.50
2018-10-11T07:47:00.486Z,20.60
2018-10-11T07:49:33.081Z,20.70
2018-10-11T07:52:04.942Z,20.70
2018-10-11T07:54:37.143Z,20.80
2018-10-11T07:57:08.581Z,20.80
2018-10-11T07:59:40.619Z,20.90
2018-10-11T08:02:11.838Z,20.90
2018-10-11T08:04:43.994Z,21.00
2018-10-11T08:07:15.313Z,21.10
2018-10-11T08:09:47.557Z,21.10
2018-10-11T08:12:18.836Z,21.10
2018-10-11T08:14:50.396Z,21.20
2018-10-11T08:17:21.735Z,21.20
2018-10-11T08:19:54.033Z,21.20
2018-10-11T08:22:25.692Z,21.10
2018-10-11T08:24:57.458Z,20.90
2018-10-11T08:27:29.192Z,20.50
2018-10-11T08:30:01.509Z,20.30
2018-10-11T08:32:33.754Z,20.30
2018-10-11T08:35:04.866Z,20.30
2018-10-11T08:37:37.377Z,20.20
2018-10-11T08:40:09.326Z,20.20
2018-10-11T08:42:41.495Z,20.10
2018-10-11T08:45:13.447Z,20.10
2018-10-11T08:47:44.426Z,20.10
2018-10-11T08:50:16.513Z,20.10
2018-10-11T08:52:48.226Z,20.10
2018-10-11T08:55:20.066Z,20.00
2018-10-11T08:57:51.646Z,19.80
2018-10-11T09:00:23.447Z,19.90
2018-10-11T09:02:55.027Z,20.00
2018-10-11T09:05:26.846Z,19.80
2018-10-11T09:07:58.307Z,19.70
2018-10-11T09:10:38.109Z,19.80
2018-10-11T09:12:59.929Z,19.80
2018-10-11T09:15:31.466Z,19.80
2018-10-11T09:18:03.566Z,19.70
2018-10-11T09:20:35.206Z,19.80
2018-10-11T09:23:07.177Z,19.80
2018-10-11T09:25:38.586Z,19.80
2018-10-11T09:28:10.547Z,19.90
2018-10-11T09:30:42.856Z,19.90
2018-10-11T09:33:15.498Z,20.10
2018-10-11T09:35:48.614Z,20.20
2018-10-11T09:38:20.854Z,20.30
2018-10-11T09:40:52.722Z,20.20
2018-10-11T09:43:24.975Z,20.30
2018-10-11T09:45:56.296Z,20.40
2018-10-11T09:48:27.816Z,20.40
2018-10-11T09:50:59.014Z,20.50
2018-10-11T09:53:30.597Z,20.50
2018-10-11T09:56:01.966Z,20.50
2018-10-11T09:58:33.648Z,20.40
2018-10-11T10:01:10.248Z,20.50
2018-10-11T10:03:41.861Z,20.50
2018-10-11T10:06:13.060Z,20.60
2018-10-11T10:08:44.777Z,20.80
2018-10-11T10:11:14.513Z,21.00
2018-10-11T10:13:46.698Z,21.00
2018-10-11T10:16:18.079Z,21.00
2018-10-11T10:18:49.041Z,21.00
2018-10-11T10:21:20.633Z,20.80
2018-10-11T10:23:52.919Z,20.90
2018-10-11T10:26:24.431Z,21.10
2018-10-11T10:28:56.758Z,21.40
2018-10-11T10:31:28.799Z,21.50
2018-10-11T10:34:00.885Z,21.50
2018-10-11T10:36:32.259Z,21.60
2018-10-11T10:39:05.037Z,21.70
2018-10-11T10:41:36.857Z,21.60
2018-10-11T10:44:08.140Z,21.60
2018-10-11T10:46:39.719Z,21.80
2018-10-11T10:49:12.259Z,21.90
2018-10-11T10:51:43.699Z,22.10
2018-10-11T10:54:19.616Z,22.30
2018-10-11T10:56:52.005Z,22.50
2018-10-11T10:59:24.501Z,22.60
2018-10-11T11:01:56.380Z,22.60
2018-10-11T11:04:28.399Z,22.40
2018-10-11T11:07:00.339Z,22.30
2018-10-11T11:09:31.739Z,22.40
2018-10-11T11:12:04.199Z,22.50
2018-10-11T11:14:35.819Z,22.50
2018-10-11T11:17:08.439Z,22.50
2018-10-11T11:19:39.884Z,22.50
2018-10-11T11:22:11.759Z,22.40
2018-10-11T11:24:43.580Z,22.40
2018-10-11T11:27:15.121Z,22.50
2018-10-11T11:29:47.201Z,22.60
2018-10-11T11:32:19.101Z,22.50
2018-10-11T11:34:51.840Z,22.50
2018-10-11T11:37:23.367Z,22.40
2018-10-11T11:39:55.747Z,22.40
2018-10-11T11:42:26.908Z,22.40
2018-10-11T11:44:59.103Z,22.40
2018-10-11T11:47:30.644Z,22.40
2018-10-11T11:50:02.464Z,22.30
2018-10-11T11:52:35.184Z,22.20
2018-10-11T11:55:07.424Z,22.10
2018-10-11T11:57:39.984Z,22.20
2018-10-11T12:00:12.150Z,22.20
2018-10-11T12:02:43.832Z,22.20
2018-10-11T12:05:15.582Z,22.30
2018-10-11T12:07:47.795Z,22.40
2018-10-11T12:10:20.456Z,22.50
2018-10-11T12:12:59.988Z,22.60
2018-10-11T12:15:32.106Z,22.70
2018-10-11T12:18:05.049Z,22.90
2018-10-11T12:20:37.586Z,23.00
2018-10-11T12:23:10.104Z,23.20
2018-10-11T12:25:41.588Z,23.30
2018-10-11T12:28:13.629Z,23.40
2018-10-11T12:30:45.908Z,23.40
2018-10-11T12:33:18.645Z,23.30
2018-10-11T12:35:51.205Z,23.10
2018-10-11T12:38:23.512Z,23.00
2018-10-11T12:40:56.207Z,22.80
2018-10-11T12:43:28.286Z,22.80
2018-10-11T12:46:00.157Z,22.60
2018-10-11T12:48:31.898Z,22.50
2018-10-11T12:51:03.839Z,22.60
2018-10-11T12:53:35.779Z,22.70
2018-10-11T12:56:07.584Z,22.60
2018-10-11T12:58:39.382Z,22.60
2018-10-11T13:01:11.586Z,22.50
2018-10-11T13:03:43.023Z,22.60
2018-10-11T13:06:14.984Z,22.60
2018-10-11T13:08:46.785Z,22.60
2018-10-11T13:11:18.623Z,22.60
2018-10-11T13:13:52.809Z,22.60
2018-10-11T13:16:23.079Z,22.60
2018-10-11T13:18:54.709Z,22.40
2018-10-11T13:21:27.197Z,22.30
2018-10-11T13:23:58.859Z,22.30
2018-10-11T13:26:30.814Z,22.30
2018-10-11T13:29:02.859Z,22.20
2018-10-11T13:31:34.920Z,22.20
2018-10-11T13:34:07.021Z,22.40
2018-10-11T13:36:39.080Z,22.40
2018-10-11T13:39:11.225Z,22.40
2018-10-11T13:41:43.338Z,22.40
2018-10-11T13:44:15.365Z,22.30
2018-10-11T13:46:46.941Z,22.30
2018-10-11T13:49:18.761Z,22.20
2018-10-11T13:51:50.170Z,22.10
2018-10-11T13:54:23.041Z,22.10
2018-10-11T13:56:58.796Z,22.00
2018-10-11T13:59:27.682Z,22.00
2018-10-11T14:02:00.077Z,22.00
2018-10-11T14:04:32.023Z,22.00
2018-10-11T14:07:04.781Z,22.10
2018-10-11T14:09:35.999Z,22.10
2018-10-11T14:12:08.041Z,22.10
2018-10-11T14:14:41.039Z,22.10
2018-10-11T14:17:12.460Z,22.00
2018-10-11T14:19:44.440Z,22.00
2018-10-11T14:22:16.382Z,21.90
2018-10-11T14:24:48.568Z,21.90
2018-10-11T14:27:20.176Z,21.90
2018-10-11T14:29:53.237Z,21.90
2018-10-11T14:32:24.796Z,21.80
2018-10-11T14:34:57.436Z,21.80
2018-10-11T14:37:30.048Z,21.70
2018-10-11T14:40:01.760Z,21.60
2018-10-11T14:42:33.541Z,21.60
2018-10-11T14:45:04.844Z,21.60
2018-10-11T14:47:36.660Z,21.60
2018-10-11T14:50:08.482Z,21.60
2018-10-11T14:52:40.520Z,21.60
2018-10-11T14:55:11.920Z,21.60
2018-10-11T14:57:43.721Z,21.60
2018-10-11T15:00:15.701Z,21.60
2018-10-11T15:02:47.771Z,21.60
2018-10-11T15:05:19.581Z,21.60
2018-10-11T15:07:51.900Z,21.60
2018-10-11T15:10:23.852Z,21.60
2018-10-11T15:12:55.798Z,21.70
2018-10-11T15:15:27.200Z,21.70
2018-10-11T15:17:58.494Z,21.70
2018-10-11T15:20:30.341Z,21.70
2018-10-11T15:23:02.459Z,21.60
2018-10-11T15:25:33.860Z,21.60
2018-10-11T15:28:06.419Z,21.70
2018-10-11T15:30:37.659Z,21.60
2018-10-11T15:33:10.099Z,21.50
2018-10-11T15:35:42.060Z,21.50
2018-10-11T15:38:13.941Z,21.40
2018-10-11T15:40:46.701Z,21.30
2018-10-11T15:43:18.760Z,21.40
2018-10-11T15:45:50.580Z,21.30
2018-10-11T15:48:22.560Z,21.20
2018-10-11T15:50:54.960Z,21.30
2018-10-11T15:53:25.620Z,21.30
2018-10-11T15:55:57.801Z,21.30
2018-10-11T15:58:29.433Z,21.30
2018-10-11T16:01:01.680Z,21.30
2018-10-11T16:03:32.961Z,21.40
2018-10-11T16:06:05.660Z,21.40
2018-10-11T16:08:36.641Z,21.50
2018-10-11T16:11:08.901Z,21.50
2018-10-11T16:13:40.723Z,21.50
2018-10-11T16:16:13.140Z,21.50
2018-10-11T16:18:45.475Z,21.50
2018-10-11T16:21:18.239Z,21.60
2018-10-11T16:23:49.821Z,21.60
2018-10-11T16:26:21.359Z,21.60
2018-10-11T16:28:52.861Z,21.60
2018-10-11T16:31:24.499Z,21.60
2018-10-11T16:33:56.220Z,21.60
2018-10-11T16:36:28.460Z,21.50
2018-10-11T16:39:00.375Z,21.50
2018-10-11T16:41:32.000Z,21.40
2018-10-11T16:44:03.980Z,21.40
2018-10-11T16:46:36.001Z,21.40
2018-10-11T16:49:08.321Z,21.30
2018-10-11T16:51:41.201Z,21.30
2018-10-11T16:54:13.060Z,21.30
2018-10-11T16:56:44.297Z,21.20
2018-10-11T16:59:15.598Z,21.20
2018-10-11T17:01:47.277Z,21.20
2018-10-11T17:04:20.037Z,21.10
2018-10-11T17:06:52.837Z,21.10
2018-10-11T17:09:24.417Z,21.00
2018-10-11T17:11:57.019Z,21.00
2018-10-11T17:14:28.997Z,20.90
2018-10-11T17:17:00.656Z,20.90
2018-10-11T17:19:31.957Z,20.90
2018-10-11T17:22:03.828Z,20.90
2018-10-11T17:24:36.777Z,20.90
2018-10-11T17:27:08.957Z,20.80
2018-10-11T17:29:41.074Z,20.80
2018-10-11T17:32:13.500Z,20.80
2018-10-11T17:34:45.797Z,20.80
2018-10-11T17:37:18.240Z,20.70
2018-10-11T17:39:50.438Z,20.70
2018-10-11T17:42:22.678Z,20.70
2018-10-11T17:44:54.839Z,20.70
2018-10-11T17:47:26.877Z,20.60
2018-10-11T17:49:59.058Z,20.60
2018-10-11T17:52:30.537Z,20.60
2018-10-11T17:55:03.219Z,20.60
2018-10-11T17:57:45.353Z,20.60
2018-10-11T18:00:17.777Z,20.60
2018-10-11T18:02:49.617Z,20.50
2018-10-11T18:05:21.958Z,20.50
2018-10-11T18:07:54.678Z,20.40
2018-10-11T18:10:26.719Z,20.40
2018-10-11T18:12:58.402Z,20.40
2018-10-11T18:15:31.157Z,20.30
2018-10-11T18:18:02.158Z,20.30
2018-10-11T18:20:33.657Z,20.30
2018-10-11T18:23:06.037Z,20.30
2018-10-11T18:25:37.657Z,20.30
2018-10-11T18:28:09.756Z,20.30
2018-10-11T18:30:41.317Z,20.20
2018-10-11T18:33:13.961Z,20.20
2018-10-11T18:35:46.005Z,20.20
2018-10-11T18:38:18.117Z,20.20
2018-10-11T18:40:49.859Z,20.10
2018-10-11T18:43:21.359Z,20.10
2018-10-11T18:45:55.359Z,20.10
2018-10-11T18:48:27.678Z,20.00
2018-10-11T18:51:00.440Z,20.00
2018-10-11T18:53:32.879Z,20.00
2018-10-11T18:56:04.958Z,20.00
2018-10-11T18:58:36.737Z,20.00
2018-10-11T19:01:08.738Z,19.90
2018-10-11T19:03:40.359Z,19.90
2018-10-11T19:06:12.538Z,19.80
2018-10-11T19:08:44.538Z,19.70
2018-10-11T19:11:16.319Z,19.70
2018-10-11T19:13:48.658Z,19.60
2018-10-11T19:16:20.298Z,19.60
2018-10-11T19:18:52.957Z,19.60
2018-10-11T19:21:25.338Z,19.60
2018-10-11T19:23:57.597Z,19.60
2018-10-11T19:26:30.238Z,19.60
2018-10-11T19:29:02.377Z,19.50
2018-10-11T19:31:34.137Z,19.50
2018-10-11T19:34:05.277Z,19.50
2018-10-11T19:36:37.477Z,19.50
2018-10-11T19:39:13.040Z,19.50
2018-10-11T19:41:45.159Z,19.40
2018-10-11T19:44:16.498Z,19.40
2018-10-11T19:46:49.120Z,19.40
2018-10-11T19:49:20.099Z,19.30
2018-10-11T19:51:52.499Z,19.20
2018-10-11T19:54:24.318Z,19.20
2018-10-11T19:56:55.997Z,19.20
2018-10-11T19:59:28.098Z,19.20
2018-10-11T20:02:00.098Z,19.10
2018-10-11T20:04:32.778Z,19.10
2018-10-11T20:07:04.159Z,19.10
2018-10-11T20:09:36.318Z,19.10
2018-10-11T20:12:07.739Z,19.00
2018-10-11T20:14:39.579Z,19.10
2018-10-11T20:17:10.962Z,19.00
2018-10-11T20:19:42.320Z,19.00
2018-10-11T20:22:14.659Z,19.00
2018-10-11T20:24:46.697Z,19.00
2018-10-11T20:27:18.617Z,19.00
2018-10-11T20:29:50.557Z,18.90
2018-10-11T20:32:22.558Z,18.80
2018-10-11T20:34:54.300Z,18.70
2018-10-11T20:37:26.377Z,18.70
2018-10-11T20:39:57.917Z,18.60
2018-10-11T20:42:29.896Z,18.60
2018-10-11T20:45:01.759Z,18.60
2018-10-11T20:47:33.578Z,18.60
2018-10-11T20:50:05.277Z,18.60
2018-10-11T20:52:36.958Z,18.60
2018-10-11T20:55:08.478Z,18.60
2018-10-11T20:57:40.498Z,18.50
2018-10-11T21:00:12.237Z,18.50
2018-10-11T21:02:45.157Z,18.40
2018-10-11T21:05:17.737Z,18.40
2018-10-11T21:07:49.757Z,18.30
2018-10-11T21:10:21.839Z,18.30
2018-10-11T21:12:54.197Z,18.20
2018-10-11T21:15:26.218Z,18.20
2018-10-11T21:17:57.777Z,18.10
2018-10-11T21:20:28.919Z,18.10
2018-10-11T21:23:00.458Z,18.00
2018-10-11T21:25:33.177Z,17.90
2018-10-11T21:28:05.331Z,17.90
2018-10-11T21:30:37.681Z,17.90
2018-10-11T21:33:10.098Z,17.80
2018-10-11T21:35:41.917Z,17.80
2018-10-11T21:38:14.597Z,17.80
2018-10-11T21:40:46.378Z,17.70
2018-10-11T21:43:18.940Z,17.70
2018-10-11T21:45:50.678Z,17.70
2018-10-11T21:48:22.238Z,17.70
2018-10-11T21:50:54.137Z,17.60
2018-10-11T21:53:26.058Z,17.50
2018-10-11T21:55:58.497Z,17.50
2018-10-11T21:58:29.578Z,17.40
2018-10-11T22:01:05.817Z,17.40
2018-10-11T22:03:37.617Z,17.30
2018-10-11T22:06:10.178Z,17.30
2018-10-11T22:08:42.938Z,17.30
2018-10-11T22:11:14.338Z,17.40
2018-10-11T22:13:46.397Z,17.30
2018-10-11T22:16:18.581Z,17.30
2018-10-11T22:18:50.760Z,17.30
2018-10-11T22:21:22.597Z,17.30
2018-10-11T22:23:54.757Z,17.30
2018-10-11T22:26:27.218Z,17.30
2018-10-11T22:28:59.257Z,17.30
2018-10-11T22:31:30.857Z,17.30
2018-10-11T22:34:02.917Z,17.30
2018-10-11T22:36:35.363Z,17.20
2018-10-11T22:39:08.337Z,17.20
2018-10-11T22:41:40.057Z,17.10
2018-10-11T22:44:12.521Z,17.10
2018-10-11T22:46:44.397Z,17.10
2018-10-11T22:49:15.999Z,17.10
2018-10-11T22:51:47.880Z,17.10
2018-10-11T22:54:19.657Z,17.10
2018-10-11T22:56:51.899Z,17.20
2018-10-11T22:59:23.717Z,17.20
2018-10-11T23:01:56.417Z,17.20
2018-10-11T23:04:28.558Z,17.20
2018-10-11T23:07:00.717Z,17.20
2018-10-11T23:09:32.577Z,17.20
2018-10-11T23:12:03.777Z,17.20
2018-10-11T23:14:35.948Z,17.30
2018-10-11T23:17:08.337Z,17.30
2018-10-11T23:19:40.256Z,17.20
2018-10-11T23:22:14.237Z,17.20
2018-10-11T23:24:46.457Z,17.30
2018-10-11T23:27:18.097Z,17.30
2018-10-11T23:29:50.737Z,17.20
2018-10-11T23:32:22.617Z,17.20
2018-10-11T23:34:55.037Z,17.20
2018-10-11T23:37:26.776Z,17.20
2018-10-11T23:39:58.117Z,17.10
2018-10-11T23:42:29.777Z,17.20
2018-10-11T23:45:02.239Z,17.10
2018-10-11T23:47:33.836Z,17.10
2018-10-11T23:50:06.016Z,17.10
2018-10-11T23:52:38.717Z,17.10
2018-10-11T23:55:11.461Z,17.10
2018-10-11T23:57:43.617Z,17.10
